createdAt,value
2017-09-26T00:00:13.395Z,114.05
2017-09-26T00:02:41.019Z,75.47
2017-09-26T00:05:08.706Z,96.27
2017-09-26T00:07:36.329Z,92.23
2017-09-26T00:10:04.749Z,89.70
2017-09-26T00:12:32.399Z,90.43
2017-09-26T00:15:00.951Z,106.23
2017-09-26T00:17:29.364Z,101.30
2017-09-26T00:19:56.984Z,99.13
2017-09-26T00:22:25.467Z,92.73
2017-09-26T00:24:53.860Z,141.40
2017-09-26T00:27:22.252Z,110.57
2017-09-26T00:29:49.904Z,111.77
2017-09-26T00:32:17.536Z,110.40
2017-09-26T00:34:45.944Z,92.23
2017-09-26T00:37:14.335Z,84.40
2017-09-26T00:39:42.004Z,87.05
2017-09-26T00:42:09.677Z,71.37
2017-09-26T00:44:37.303Z,88.97
2017-09-26T00:47:05.729Z,85.50
2017-09-26T00:49:33.364Z,100.03
2017-09-26T00:52:02.172Z,99.43
2017-09-26T00:54:29.799Z,87.23
2017-09-26T00:56:58.236Z,120.67
2017-09-26T00:59:25.877Z,128.77
2017-09-26T01:01:53.504Z,257.27
2017-09-26T01:04:21.932Z,129.83
2017-09-26T01:06:50.310Z,122.77
2017-09-26T01:09:17.969Z,237.63
2017-09-26T01:11:45.591Z,280.93
2017-09-26T01:14:14.184Z,462.97
2017-09-26T01:16:41.984Z,330.93
2017-09-26T01:19:09.855Z,463.33
2017-09-26T01:21:37.822Z,399.00
2017-09-26T01:24:05.502Z,249.27
2017-09-26T01:26:34.069Z,256.87
2017-09-26T01:29:03.962Z,236.25
2017-09-26T01:31:31.632Z,271.30
2017-09-26T01:33:59.251Z,352.87
2017-09-26T01:36:26.875Z,271.37
2017-09-26T01:38:54.520Z,246.57
2017-09-26T01:41:22.183Z,236.87
2017-09-26T01:43:49.843Z,134.93
2017-09-26T01:46:17.524Z,157.25
2017-09-26T01:48:45.287Z,120.13
2017-09-26T01:51:12.912Z,130.90
2017-09-26T01:53:40.555Z,91.00
2017-09-26T01:56:10.548Z,83.67
2017-09-26T01:58:40.719Z,181.83
2017-09-26T02:01:08.400Z,179.58
2017-09-26T02:03:36.032Z,285.47
2017-09-26T02:06:04.748Z,140.40
2017-09-26T02:08:32.373Z,145.67
2017-09-26T02:11:01.712Z,163.43
2017-09-26T02:13:29.345Z,261.83
2017-09-26T02:15:57.856Z,298.60
2017-09-26T02:18:25.516Z,210.73
2017-09-26T02:20:53.217Z,115.97
2017-09-26T02:23:20.960Z,99.03
2017-09-26T02:25:48.599Z,107.27
2017-09-26T02:28:16.248Z,117.20
2017-09-26T02:30:44.651Z,117.60
2017-09-26T02:33:12.319Z,149.77
2017-09-26T02:35:39.948Z,118.73
2017-09-26T02:38:08.340Z,119.72
2017-09-26T02:40:35.979Z,92.23
2017-09-26T02:43:04.704Z,173.55
2017-09-26T02:45:32.351Z,203.53
2017-09-26T02:48:01.672Z,117.20
2017-09-26T02:50:29.436Z,126.57
2017-09-26T02:52:57.058Z,164.60
2017-09-26T02:55:25.451Z,165.53
2017-09-26T02:57:53.955Z,193.63
2017-09-26T03:00:22.204Z,143.77
2017-09-26T03:02:50.626Z,147.73
2017-09-26T03:05:18.260Z,149.93
2017-09-26T03:07:45.916Z,179.52
2017-09-26T03:10:14.312Z,177.98
2017-09-26T03:12:41.935Z,154.87
2017-09-26T03:15:09.579Z,251.03
2017-09-26T03:17:37.211Z,447.20
2017-09-26T03:20:04.856Z,428.03
2017-09-26T03:22:32.483Z,292.20
2017-09-26T03:25:01.121Z,465.27
2017-09-26T03:27:28.749Z,353.50
2017-09-26T03:29:57.160Z,268.53
2017-09-26T03:32:24.924Z,162.43
2017-09-26T03:34:53.033Z,206.53
2017-09-26T03:37:20.681Z,197.52
2017-09-26T03:39:48.304Z,317.57
2017-09-26T03:42:15.984Z,312.83
2017-09-26T03:44:43.649Z,304.27
2017-09-26T03:47:12.025Z,224.15
2017-09-26T03:49:39.702Z,207.43
2017-09-26T03:52:07.360Z,269.83
2017-09-26T03:54:35.013Z,387.40
2017-09-26T03:57:04.815Z,392.90
2017-09-26T03:59:32.483Z,277.57
2017-09-26T04:02:00.109Z,281.97
2017-09-26T04:04:28.511Z,181.40
2017-09-26T04:06:56.168Z,294.77
2017-09-26T04:09:24.564Z,343.67
2017-09-26T04:11:52.207Z,394.00
2017-09-26T04:14:20.600Z,411.40
2017-09-26T04:16:48.240Z,397.67
2017-09-26T04:19:16.665Z,386.40
2017-09-26T04:21:44.305Z,442.90
2017-09-26T04:24:11.988Z,186.40
2017-09-26T04:26:39.616Z,132.70
2017-09-26T04:29:08.063Z,166.50
2017-09-26T04:31:35.716Z,158.53
2017-09-26T04:34:04.112Z,200.23
2017-09-26T04:36:31.776Z,250.67
2017-09-26T04:39:01.836Z,177.43
2017-09-26T04:41:29.932Z,291.60
2017-09-26T04:43:57.720Z,318.20
2017-09-26T04:46:25.348Z,282.93
2017-09-26T04:48:53.027Z,303.33
2017-09-26T04:51:20.652Z,432.00
2017-09-26T04:53:49.799Z,368.13
2017-09-26T04:56:17.530Z,419.90
2017-09-26T04:58:45.155Z,523.17
2017-09-26T05:01:13.579Z,482.43
2017-09-26T05:03:41.189Z,592.80
2017-09-26T05:06:10.272Z,418.30
2017-09-26T05:08:37.954Z,366.20
2017-09-26T05:11:06.328Z,433.50
2017-09-26T05:13:33.932Z,441.77
2017-09-26T05:16:03.788Z,349.60
2017-09-26T05:18:31.400Z,292.43
2017-09-26T05:20:58.971Z,285.87
2017-09-26T05:23:26.591Z,391.23
2017-09-26T05:25:54.248Z,452.90
2017-09-26T05:28:21.911Z,349.67
2017-09-26T05:30:49.504Z,274.53
2017-09-26T05:33:17.080Z,331.10
2017-09-26T05:35:44.694Z,370.27
2017-09-26T05:38:12.296Z,191.68
2017-09-26T05:40:39.868Z,259.60
2017-09-26T05:43:07.484Z,233.65
2017-09-26T05:45:35.143Z,157.40
2017-09-26T05:48:04.840Z,117.03
2017-09-26T05:50:32.512Z,156.20
2017-09-26T05:53:00.085Z,102.25
2017-09-26T05:55:28.474Z,182.77
2017-09-26T05:57:56.812Z,198.00
2017-09-26T06:00:24.395Z,222.80
2017-09-26T06:02:51.993Z,169.90
2017-09-26T06:05:19.573Z,193.52
2017-09-26T06:07:47.187Z,167.20
2017-09-26T06:10:15.527Z,113.05
2017-09-26T06:12:43.100Z,118.10
2017-09-26T06:15:10.704Z,127.40
2017-09-26T06:17:38.401Z,138.23
2017-09-26T06:20:05.997Z,124.80
2017-09-26T06:22:33.595Z,131.00
2017-09-26T06:25:02.048Z,109.27
2017-09-26T06:27:29.643Z,160.90
2017-09-26T06:29:57.228Z,115.57
2017-09-26T06:32:24.823Z,126.37
2017-09-26T06:34:52.395Z,116.70
2017-09-26T06:37:20.764Z,110.97
2017-09-26T06:39:49.100Z,96.23
2017-09-26T06:42:16.704Z,94.27
2017-09-26T06:44:44.271Z,88.30
2017-09-26T06:47:13.372Z,84.90
2017-09-26T06:49:40.968Z,81.97
2017-09-26T06:52:08.552Z,87.43
2017-09-26T06:54:36.169Z,88.17
2017-09-26T06:57:04.820Z,78.93
2017-09-26T06:59:32.496Z,75.53
2017-09-26T07:02:00.065Z,81.33
2017-09-26T07:04:28.427Z,71.33
2017-09-26T07:06:56.000Z,62.67
2017-09-26T07:09:23.668Z,66.50
2017-09-26T07:11:51.324Z,57.10
2017-09-26T07:14:20.829Z,59.33
2017-09-26T07:16:48.403Z,61.43
2017-09-26T07:19:16.741Z,47.58
2017-09-26T07:21:44.345Z,52.73
2017-09-26T07:24:12.680Z,46.33
2017-09-26T07:26:40.276Z,55.87
2017-09-26T07:29:08.104Z,56.47
2017-09-26T07:31:35.985Z,51.50
2017-09-26T07:34:04.671Z,50.73
2017-09-26T07:36:32.241Z,40.90
2017-09-26T07:38:59.837Z,61.97
2017-09-26T07:41:28.190Z,86.20
2017-09-26T07:43:55.856Z,73.07
2017-09-26T07:46:23.516Z,53.33
2017-09-26T07:48:51.382Z,52.17
2017-09-26T07:51:18.956Z,51.33
2017-09-26T07:53:47.325Z,56.37
2017-09-26T07:56:15.682Z,54.27
2017-09-26T07:58:43.253Z,45.93
2017-09-26T08:01:11.435Z,53.78
2017-09-26T08:03:40.359Z,43.17
2017-09-26T08:06:09.243Z,53.40
2017-09-26T08:08:38.164Z,50.43
2017-09-26T08:11:05.737Z,46.60
2017-09-26T08:13:33.328Z,48.27
2017-09-26T08:16:01.926Z,48.63
2017-09-26T08:18:29.528Z,46.50
2017-09-26T08:20:57.104Z,43.83
2017-09-26T08:23:24.710Z,47.60
2017-09-26T08:25:52.280Z,46.27
2017-09-26T08:28:20.640Z,42.70
2017-09-26T08:30:49.024Z,41.30
2017-09-26T08:33:16.612Z,41.75
2017-09-26T08:35:44.948Z,41.53
2017-09-26T08:38:12.632Z,44.67
2017-09-26T08:40:40.209Z,31.73
2017-09-26T08:43:08.977Z,29.27
2017-09-26T08:45:38.048Z,28.90
2017-09-26T08:48:05.629Z,30.57
2017-09-26T08:50:33.225Z,31.90
2017-09-26T08:53:02.876Z,31.55
2017-09-26T08:55:31.232Z,29.63
2017-09-26T08:57:58.797Z,27.37
2017-09-26T09:00:26.400Z,27.30
2017-09-26T09:02:53.972Z,26.57
2017-09-26T09:05:22.347Z,24.47
2017-09-26T09:07:50.240Z,26.23
2017-09-26T09:10:17.836Z,27.27
2017-09-26T09:12:45.411Z,29.37
2017-09-26T09:15:13.097Z,27.03
2017-09-26T09:17:40.680Z,31.03
2017-09-26T09:20:09.037Z,30.67
2017-09-26T09:22:36.632Z,33.53
2017-09-26T09:25:04.204Z,34.35
2017-09-26T09:27:31.796Z,40.27
2017-09-26T09:29:59.480Z,32.60
2017-09-26T09:32:27.146Z,34.87
2017-09-26T09:34:54.723Z,36.70
2017-09-26T09:37:23.391Z,38.15
2017-09-26T09:39:50.967Z,39.53
2017-09-26T09:42:19.332Z,39.03
2017-09-26T09:44:46.927Z,42.60
2017-09-26T09:47:14.516Z,39.47
2017-09-26T09:49:42.216Z,39.53
2017-09-26T09:52:09.809Z,41.78
2017-09-26T09:54:38.360Z,49.30
2017-09-26T09:57:05.945Z,47.83
2017-09-26T09:59:34.281Z,45.50
2017-09-26T10:02:04.004Z,59.85
2017-09-26T10:04:31.571Z,30.33
2017-09-26T10:06:59.167Z,36.57
2017-09-26T10:09:26.747Z,29.60
2017-09-26T10:11:54.350Z,35.93
2017-09-26T10:14:21.922Z,30.67
2017-09-26T10:16:50.396Z,31.83
2017-09-26T10:19:17.978Z,32.33
2017-09-26T10:21:46.322Z,28.10
2017-09-26T10:24:14.001Z,29.63
2017-09-26T10:26:41.668Z,33.53
2017-09-26T10:29:09.265Z,33.78
2017-09-26T10:31:36.837Z,30.53
2017-09-26T10:34:04.441Z,28.27
2017-09-26T10:36:32.109Z,28.17
2017-09-26T10:38:59.765Z,31.73
2017-09-26T10:41:28.193Z,29.90
2017-09-26T10:43:56.137Z,28.83
2017-09-26T10:46:24.500Z,32.40
2017-09-26T10:48:53.589Z,38.23
2017-09-26T10:51:21.364Z,52.17
2017-09-26T10:53:49.700Z,35.50
2017-09-26T10:56:17.296Z,35.40
2017-09-26T10:58:45.684Z,43.30
2017-09-26T11:01:13.256Z,38.60
2017-09-26T11:03:41.624Z,36.67
2017-09-26T11:06:09.280Z,43.97
2017-09-26T11:08:36.872Z,38.07
2017-09-26T11:11:04.444Z,40.47
2017-09-26T11:13:32.059Z,45.70
2017-09-26T11:15:59.624Z,41.80
2017-09-26T11:18:27.193Z,50.10
2017-09-26T11:20:54.783Z,42.27
2017-09-26T11:23:22.356Z,40.97
2017-09-26T11:25:49.951Z,37.53
2017-09-26T11:28:17.529Z,37.30
2017-09-26T11:30:45.137Z,35.50
2017-09-26T11:33:12.748Z,41.17
2017-09-26T11:35:40.357Z,41.43
2017-09-26T11:38:07.944Z,33.17
2017-09-26T11:40:35.532Z,31.80
2017-09-26T11:43:04.840Z,32.53
2017-09-26T11:45:32.417Z,35.40
2017-09-26T11:48:02.212Z,34.17
2017-09-26T11:50:29.868Z,33.33
2017-09-26T11:52:58.976Z,39.23
2017-09-26T11:55:26.548Z,38.70
2017-09-26T11:57:54.884Z,36.57
2017-09-26T12:00:22.480Z,33.00
2017-09-26T12:02:50.812Z,32.47
2017-09-26T12:05:18.419Z,32.30
2017-09-26T12:07:46.077Z,35.10
2017-09-26T12:10:13.668Z,33.83
2017-09-26T12:12:41.241Z,36.23
2017-09-26T12:15:09.223Z,33.63
2017-09-26T12:17:36.791Z,33.90
2017-09-26T12:20:04.493Z,36.60
2017-09-26T12:22:32.148Z,33.70
2017-09-26T12:25:00.120Z,34.37
2017-09-26T12:27:27.693Z,32.20
2017-09-26T12:29:56.032Z,37.90
2017-09-26T12:32:23.635Z,36.00
2017-09-26T12:34:51.972Z,37.93
2017-09-26T12:37:19.565Z,36.03
2017-09-26T12:39:47.928Z,29.17
2017-09-26T12:42:15.505Z,29.50
2017-09-26T12:44:43.092Z,27.73
2017-09-26T12:47:10.664Z,31.02
2017-09-26T12:49:38.284Z,29.63
2017-09-26T12:52:05.867Z,27.50
2017-09-26T12:54:34.333Z,28.37
2017-09-26T12:57:03.764Z,25.63
2017-09-26T12:59:31.391Z,37.40
2017-09-26T13:01:58.959Z,27.87
2017-09-26T13:04:26.552Z,25.33
2017-09-26T13:06:54.177Z,26.97
2017-09-26T13:09:21.773Z,29.63
2017-09-26T13:11:49.345Z,25.93
2017-09-26T13:14:17.060Z,26.03
2017-09-26T13:16:44.630Z,24.10
2017-09-26T13:19:12.963Z,27.83
2017-09-26T13:21:40.948Z,28.90
2017-09-26T13:24:08.532Z,31.37
2017-09-26T13:26:36.124Z,29.43
2017-09-26T13:29:04.656Z,25.90
2017-09-26T13:31:32.340Z,23.93
2017-09-26T13:33:59.904Z,26.70
2017-09-26T13:36:27.532Z,27.13
2017-09-26T13:38:55.125Z,21.97
2017-09-26T13:41:22.700Z,23.17
2017-09-26T13:43:51.164Z,22.37
2017-09-26T13:46:18.741Z,19.80
2017-09-26T13:48:47.308Z,25.53
2017-09-26T13:51:14.977Z,25.00
2017-09-26T13:53:42.547Z,24.23
2017-09-26T13:56:10.909Z,25.60
2017-09-26T13:58:38.493Z,23.20
2017-09-26T14:01:06.104Z,23.27
2017-09-26T14:03:33.676Z,21.77
2017-09-26T14:06:02.987Z,19.80
2017-09-26T14:08:30.661Z,19.17
2017-09-26T14:10:58.817Z,21.00
2017-09-26T14:13:26.390Z,24.60
2017-09-26T14:15:54.160Z,22.13
2017-09-26T14:18:21.737Z,22.50
2017-09-26T14:20:50.076Z,26.10
2017-09-26T14:23:17.672Z,27.87
2017-09-26T14:25:46.092Z,26.70
2017-09-26T14:28:13.688Z,17.53
2017-09-26T14:30:41.260Z,22.57
2017-09-26T14:33:08.869Z,23.08
2017-09-26T14:35:36.481Z,19.60
2017-09-26T14:38:04.097Z,24.17
2017-09-26T14:40:31.676Z,25.70
2017-09-26T14:42:59.263Z,24.60
2017-09-26T14:45:27.680Z,19.53
2017-09-26T14:47:55.411Z,16.87
2017-09-26T14:50:24.484Z,18.73
2017-09-26T14:52:52.058Z,20.33
2017-09-26T14:55:19.656Z,21.08
2017-09-26T14:57:48.024Z,24.10
2017-09-26T15:00:16.384Z,24.70
2017-09-26T15:02:44.052Z,19.40
2017-09-26T15:05:11.673Z,20.10
2017-09-26T15:07:39.247Z,21.20
2017-09-26T15:10:06.936Z,24.27
2017-09-26T15:12:34.652Z,16.70
2017-09-26T15:15:04.771Z,19.37
2017-09-26T15:17:32.442Z,21.37
2017-09-26T15:20:01.152Z,24.63
2017-09-26T15:22:28.731Z,20.37
2017-09-26T15:24:56.395Z,17.07
2017-09-26T15:27:24.776Z,17.00
2017-09-26T15:29:52.368Z,14.13
2017-09-26T15:32:19.956Z,19.40
2017-09-26T15:34:47.524Z,13.83
2017-09-26T15:37:15.124Z,21.43
2017-09-26T15:39:42.696Z,17.43
2017-09-26T15:42:11.060Z,20.87
2017-09-26T15:44:38.723Z,16.60
2017-09-26T15:47:06.376Z,20.07
2017-09-26T15:49:33.952Z,14.40
2017-09-26T15:52:02.574Z,13.73
2017-09-26T15:54:30.920Z,17.45
2017-09-26T15:56:59.255Z,13.20
2017-09-26T15:59:26.856Z,15.90
2017-09-26T16:01:55.232Z,21.47
2017-09-26T16:04:22.824Z,13.60
2017-09-26T16:06:50.449Z,18.17
2017-09-26T16:09:18.044Z,11.60
2017-09-26T16:11:45.668Z,14.17
2017-09-26T16:14:13.265Z,17.87
2017-09-26T16:16:40.897Z,12.83
2017-09-26T16:19:08.491Z,14.30
2017-09-26T16:21:36.112Z,17.50
2017-09-26T16:24:05.012Z,19.08
2017-09-26T16:26:33.653Z,12.43
2017-09-26T16:29:02.101Z,14.30
2017-09-26T16:31:30.463Z,14.27
2017-09-26T16:33:58.804Z,17.85
2017-09-26T16:36:26.516Z,14.60
2017-09-26T16:38:54.852Z,19.10
2017-09-26T16:41:22.453Z,12.77
2017-09-26T16:43:50.796Z,14.30
2017-09-26T16:46:18.780Z,23.30
2017-09-26T16:48:46.448Z,19.10
2017-09-26T16:51:14.777Z,13.27
2017-09-26T16:53:42.383Z,16.43
2017-09-26T16:56:10.053Z,14.35
2017-09-26T16:58:37.715Z,17.70
2017-09-26T17:01:05.375Z,17.67
2017-09-26T17:03:32.967Z,17.97
2017-09-26T17:06:02.856Z,19.02
2017-09-26T17:08:30.615Z,21.13
2017-09-26T17:10:58.185Z,23.93
2017-09-26T17:13:25.756Z,21.93
2017-09-26T17:15:54.115Z,24.30
2017-09-26T17:18:21.680Z,21.00
2017-09-26T17:20:49.276Z,22.97
2017-09-26T17:23:16.895Z,25.53
2017-09-26T17:25:44.494Z,27.57
2017-09-26T17:28:12.068Z,32.35
2017-09-26T17:30:39.684Z,29.47
2017-09-26T17:33:07.265Z,25.37
2017-09-26T17:35:35.622Z,28.37
2017-09-26T17:38:04.927Z,26.10
2017-09-26T17:40:32.504Z,27.20
2017-09-26T17:43:01.768Z,28.40
2017-09-26T17:45:29.456Z,30.00
2017-09-26T17:47:57.792Z,25.97
2017-09-26T17:50:25.600Z,26.30
2017-09-26T17:52:53.941Z,25.03
2017-09-26T17:55:21.695Z,24.63
2017-09-26T17:57:49.299Z,23.73
2017-09-26T18:00:16.884Z,26.00
2017-09-26T18:02:45.256Z,23.57
2017-09-26T18:05:13.597Z,27.45
2017-09-26T18:07:41.968Z,23.23
2017-09-26T18:10:09.656Z,25.70
2017-09-26T18:12:37.232Z,23.70
2017-09-26T18:15:05.747Z,26.60
2017-09-26T18:17:33.315Z,23.83
2017-09-26T18:20:02.769Z,23.70
2017-09-26T18:22:31.189Z,20.90
2017-09-26T18:24:58.758Z,20.13
2017-09-26T18:27:26.347Z,24.60
2017-09-26T18:29:53.983Z,19.23
2017-09-26T18:32:21.732Z,22.23
2017-09-26T18:34:49.305Z,18.97
2017-09-26T18:37:16.932Z,21.00
2017-09-26T18:39:45.400Z,19.20
2017-09-26T18:42:13.117Z,18.75
2017-09-26T18:44:40.721Z,21.73
2017-09-26T18:47:08.438Z,26.20
2017-09-26T18:49:36.099Z,17.53
2017-09-26T18:52:04.963Z,23.80
2017-09-26T18:54:33.484Z,25.00
2017-09-26T18:57:02.911Z,16.73
2017-09-26T18:59:30.504Z,20.73
2017-09-26T19:01:58.891Z,23.73
2017-09-26T19:04:27.439Z,18.37
2017-09-26T19:06:55.061Z,24.07
2017-09-26T19:09:22.659Z,18.07
2017-09-26T19:11:50.283Z,20.80
2017-09-26T19:14:18.991Z,21.17
2017-09-26T19:16:46.607Z,20.07
2017-09-26T19:19:15.033Z,19.20
2017-09-26T19:21:42.653Z,22.90
2017-09-26T19:24:11.063Z,19.63
2017-09-26T19:26:38.672Z,24.00
2017-09-26T19:29:07.803Z,21.52
2017-09-26T19:31:35.479Z,20.60
2017-09-26T19:34:04.872Z,28.20
2017-09-26T19:36:32.547Z,18.27
2017-09-26T19:39:01.069Z,22.07
2017-09-26T19:41:28.688Z,23.43
2017-09-26T19:43:56.840Z,23.20
2017-09-26T19:46:25.257Z,17.30
2017-09-26T19:48:52.913Z,19.95
2017-09-26T19:51:20.535Z,23.10
2017-09-26T19:53:48.335Z,25.57
2017-09-26T19:56:15.955Z,31.57
2017-09-26T19:58:43.580Z,33.23
2017-09-26T20:01:11.224Z,32.37
2017-09-26T20:03:38.848Z,34.43
2017-09-26T20:06:07.676Z,37.70
2017-09-26T20:08:35.295Z,41.20
2017-09-26T20:11:04.617Z,36.27
2017-09-26T20:13:32.403Z,50.33
2017-09-26T20:16:00.627Z,42.30
2017-09-26T20:18:28.244Z,48.47
2017-09-26T20:20:55.887Z,44.90
2017-09-26T20:23:23.455Z,44.60
2017-09-26T20:25:51.047Z,42.07
2017-09-26T20:28:18.635Z,44.92
2017-09-26T20:30:46.357Z,48.53
2017-09-26T20:33:13.959Z,53.33
2017-09-26T20:35:41.580Z,59.40
2017-09-26T20:38:09.601Z,52.38
2017-09-26T20:40:37.987Z,56.30
2017-09-26T20:43:06.371Z,50.83
2017-09-26T20:45:34.831Z,54.87
2017-09-26T20:48:03.851Z,52.45
2017-09-26T20:50:32.212Z,59.83
2017-09-26T20:53:02.228Z,57.20
2017-09-26T20:55:29.891Z,66.37
2017-09-26T20:57:57.755Z,59.87
2017-09-26T21:00:25.333Z,57.50
2017-09-26T21:02:53.668Z,58.87
2017-09-26T21:05:21.267Z,59.97
2017-09-26T21:07:49.649Z,69.83
2017-09-26T21:10:17.979Z,60.27
2017-09-26T21:12:45.635Z,62.23
2017-09-26T21:15:13.232Z,61.33
2017-09-26T21:17:40.796Z,70.80
2017-09-26T21:20:08.403Z,59.50
2017-09-26T21:22:36.025Z,63.67
2017-09-26T21:25:03.856Z,62.23
2017-09-26T21:27:31.420Z,67.37
2017-09-26T21:29:59.117Z,76.67
2017-09-26T21:32:26.768Z,71.73
2017-09-26T21:34:55.849Z,72.33
2017-09-26T21:37:23.456Z,60.97
2017-09-26T21:39:52.528Z,64.27
2017-09-26T21:42:20.184Z,70.90
2017-09-26T21:44:47.852Z,87.03
2017-09-26T21:47:16.252Z,79.15
2017-09-26T21:49:44.616Z,72.50
2017-09-26T21:52:12.193Z,77.60
2017-09-26T21:54:40.556Z,75.53
2017-09-26T21:57:08.216Z,82.97
2017-09-26T21:59:35.880Z,83.27
2017-09-26T22:02:04.568Z,86.30
2017-09-26T22:04:32.923Z,82.13
2017-09-26T22:07:03.699Z,76.78
2017-09-26T22:09:32.086Z,91.30
2017-09-26T22:12:01.347Z,93.80
2017-09-26T22:14:28.943Z,95.00
2017-09-26T22:16:57.448Z,84.50
2017-09-26T22:19:25.045Z,101.47
2017-09-26T22:21:52.646Z,105.47
2017-09-26T22:24:21.001Z,92.47
2017-09-26T22:26:48.598Z,88.80
2017-09-26T22:29:16.284Z,95.22
2017-09-26T22:31:43.885Z,104.50
2017-09-26T22:34:11.455Z,108.10
2017-09-26T22:36:39.320Z,109.67
2017-09-26T22:39:06.900Z,105.97
2017-09-26T22:41:35.245Z,108.73
2017-09-26T22:44:04.560Z,121.57
2017-09-26T22:46:32.996Z,116.60
2017-09-26T22:49:02.236Z,104.05
2017-09-26T22:51:29.900Z,112.30
2017-09-26T22:53:57.988Z,113.93
2017-09-26T22:56:26.352Z,101.10
2017-09-26T22:58:53.928Z,97.07
2017-09-26T23:01:22.396Z,109.80
2017-09-26T23:03:49.968Z,112.55
2017-09-26T23:06:18.355Z,117.55
2017-09-26T23:08:46.712Z,120.20
2017-09-26T23:11:14.318Z,120.70
2017-09-26T23:13:41.892Z,155.23
2017-09-26T23:16:09.497Z,130.63
2017-09-26T23:18:37.977Z,129.25
2017-09-26T23:21:05.848Z,131.20
2017-09-26T23:23:33.425Z,128.33
2017-09-26T23:26:02.997Z,126.00
2017-09-26T23:28:30.591Z,133.30
2017-09-26T23:30:58.929Z,126.37
2017-09-26T23:33:26.528Z,126.57
2017-09-26T23:35:54.868Z,130.87
2017-09-26T23:38:22.563Z,125.97
2017-09-26T23:40:50.142Z,129.53
2017-09-26T23:43:18.508Z,156.30
2017-09-26T23:45:46.881Z,108.00
2017-09-26T23:48:15.254Z,123.73
2017-09-26T23:50:42.831Z,133.90
2017-09-26T23:53:11.176Z,136.57
2017-09-26T23:55:38.856Z,135.40
2017-09-26T23:58:06.445Z,135.63
